createdAt,value
2022-08-11T00:01:02.543Z,49.36
2022-08-11T00:06:03.814Z,49.78
2022-08-11T00:11:05.065Z,50.38
2022-08-11T00:16:07.182Z,50.53
2022-08-11T00:21:08.424Z,50.22
2022-08-11T00:26:09.876Z,51.05
2022-08-11T00:31:11.134Z,50.13
2022-08-11T00:36:13.025Z,50.35
2022-08-11T00:41:14.282Z,50.98
2022-08-11T00:46:15.659Z,50.87
2022-08-11T00:51:16.944Z,51.91
2022-08-11T00:56:18.326Z,52.61
2022-08-11T01:01:21.029Z,51.31
2022-08-11T01:06:23.001Z,52.79
2022-08-11T01:11:25.678Z,53.12
2022-08-11T01:16:26.956Z,53.76
2022-08-11T01:21:28.240Z,54.25
2022-08-11T01:26:29.519Z,54.93
2022-08-11T01:31:30.779Z,54.55
2022-08-11T01:36:32.095Z,54.31
2022-08-11T01:41:52.347Z,52.19
2022-08-11T01:46:53.646Z,52.04
2022-08-11T01:51:55.028Z,51.73
2022-08-11T01:56:57.098Z,51.85
2022-08-11T02:01:58.439Z,51.96
2022-08-11T02:06:59.738Z,52.16
2022-08-11T02:12:00.977Z,52.60
2022-08-11T02:17:03.901Z,53.30
2022-08-11T02:22:24.085Z,54.26
2022-08-11T02:27:25.359Z,53.79
2022-08-11T02:32:45.154Z,53.77
2022-08-11T02:37:47.202Z,53.36
2022-08-11T02:42:48.910Z,52.46
2022-08-11T02:48:10.526Z,54.58
2022-08-11T02:53:11.781Z,54.88
2022-08-11T02:58:13.108Z,54.55
2022-08-11T03:03:16.389Z,55.51
2022-08-11T03:08:18.779Z,54.48
2022-08-11T03:13:58.656Z,55.69
2022-08-11T03:18:59.915Z,56.76
2022-08-11T03:24:01.617Z,57.58
2022-08-11T03:29:02.987Z,58.41
2022-08-11T03:34:07.142Z,58.61
2022-08-11T03:39:09.194Z,57.74
2022-08-11T03:44:10.532Z,57.34
2022-08-11T03:49:11.780Z,56.62
2022-08-11T03:54:16.049Z,56.97
2022-08-11T03:59:17.569Z,55.15
2022-08-11T04:04:18.858Z,54.78
2022-08-11T04:09:20.138Z,54.56
2022-08-11T04:14:40.327Z,54.97
2022-08-11T04:19:41.636Z,54.96
2022-08-11T04:24:48.383Z,55.12
2022-08-11T04:30:02.027Z,54.93
2022-08-11T04:35:07.194Z,54.43
2022-08-11T04:40:11.093Z,54.60
2022-08-11T04:45:13.234Z,54.14
2022-08-11T04:50:33.142Z,54.76
2022-08-11T04:55:53.094Z,54.98
2022-08-11T05:01:13.240Z,54.39
2022-08-11T05:06:14.617Z,55.15
2022-08-11T05:11:15.899Z,54.10
2022-08-11T05:16:36.159Z,55.15
2022-08-11T05:21:57.264Z,55.38
2022-08-11T05:27:19.710Z,55.60
2022-08-11T05:32:39.828Z,55.50
2022-08-11T05:37:41.219Z,54.64
2022-08-11T05:43:01.193Z,54.82
2022-08-11T05:48:20.955Z,54.63
2022-08-11T05:53:46.127Z,53.84
2022-08-11T05:58:47.850Z,51.33
2022-08-11T06:04:21.747Z,49.38
2022-08-11T06:09:23.152Z,48.83
2022-08-11T06:14:29.736Z,48.22
2022-08-11T06:19:30.978Z,47.49
2022-08-11T06:24:39.911Z,47.38
2022-08-11T06:29:52.562Z,46.95
2022-08-11T06:34:56.763Z,48.14
2022-08-11T06:39:58.654Z,47.51
2022-08-11T06:44:59.967Z,46.20
2022-08-11T06:50:20.059Z,45.69
2022-08-11T06:55:56.697Z,46.63
2022-08-11T07:00:59.658Z,46.33
2022-08-11T07:06:00.903Z,47.19
2022-08-11T07:11:20.886Z,47.24
2022-08-11T07:16:25.010Z,45.85
2022-08-11T07:22:03.059Z,44.99
2022-08-11T07:27:23.894Z,44.78
2022-08-11T07:32:25.282Z,44.62
2022-08-11T07:37:26.534Z,43.80
2022-08-11T07:42:27.906Z,43.65
2022-08-11T07:47:47.920Z,42.45
2022-08-11T07:52:52.844Z,41.91
2022-08-11T07:58:19.561Z,40.53
2022-08-11T08:03:53.613Z,41.16
2022-08-11T08:09:14.749Z,41.67
2022-08-11T08:14:34.610Z,41.02
2022-08-11T08:19:36.736Z,39.74
2022-08-11T08:24:38.270Z,37.22
2022-08-11T08:29:58.066Z,38.64
2022-08-11T08:34:59.445Z,37.99
2022-08-11T08:40:00.747Z,35.29
2022-08-11T08:45:01.982Z,35.41
2022-08-11T08:50:03.288Z,34.42
2022-08-11T08:55:04.556Z,36.45
2022-08-11T09:00:05.840Z,35.10
2022-08-11T09:05:10.105Z,34.90
2022-08-11T09:10:11.881Z,31.37
2022-08-11T09:15:13.198Z,33.83
2022-08-11T09:20:14.629Z,34.04
2022-08-11T09:25:34.814Z,33.15
2022-08-11T09:30:36.139Z,32.11
2022-08-11T09:35:38.681Z,30.68
2022-08-11T09:40:39.983Z,31.85
2022-08-11T09:45:41.895Z,31.21
2022-08-11T09:50:43.169Z,32.77
2022-08-11T09:55:45.154Z,29.99
2022-08-11T10:00:46.539Z,29.86
2022-08-11T10:06:08.160Z,29.58
2022-08-11T10:11:09.630Z,30.56
2022-08-11T10:16:15.690Z,29.24
2022-08-11T10:21:17.950Z,30.52
2022-08-11T10:26:37.993Z,31.25
2022-08-11T10:31:59.336Z,30.05
2022-08-11T10:37:05.117Z,30.51
2022-08-11T10:42:35.421Z,28.81
2022-08-11T10:47:49.034Z,29.59
2022-08-11T10:53:09.962Z,28.21
2022-08-11T10:58:29.705Z,29.88
2022-08-11T11:03:31.009Z,28.61
2022-08-11T11:08:50.819Z,29.53
2022-08-11T11:14:12.110Z,30.25
2022-08-11T11:19:15.213Z,29.37
2022-08-11T11:24:16.500Z,26.88
2022-08-11T11:29:20.258Z,27.42
2022-08-11T11:34:22.093Z,27.75
2022-08-11T11:39:23.500Z,29.20
2022-08-11T11:44:24.809Z,24.21
2022-08-11T11:49:26.107Z,26.71
2022-08-11T11:54:27.611Z,25.54
2022-08-11T11:59:47.359Z,26.66
2022-08-11T12:04:48.755Z,25.01
2022-08-11T12:09:49.997Z,23.97
2022-08-11T12:14:51.255Z,24.54
2022-08-11T12:19:52.510Z,25.28
2022-08-11T12:25:12.914Z,23.73
2022-08-11T12:30:14.198Z,24.24
2022-08-11T12:35:15.501Z,25.67
2022-08-11T12:40:42.448Z,24.50
2022-08-11T12:45:51.477Z,23.80
2022-08-11T12:51:11.311Z,23.99
2022-08-11T12:56:31.353Z,23.67
2022-08-11T13:01:59.613Z,24.31
2022-08-11T13:07:03.209Z,24.07
2022-08-11T13:12:22.971Z,23.05
2022-08-11T13:17:43.775Z,23.87
2022-08-11T13:22:45.803Z,22.63
2022-08-11T13:27:47.114Z,22.96
2022-08-11T13:32:48.472Z,23.24
2022-08-11T13:38:17.475Z,23.52
2022-08-11T13:43:11.877Z,22.87
2022-08-11T13:48:13.250Z,21.35
2022-08-11T13:53:14.518Z,20.77
2022-08-11T13:58:20.487Z,21.67
2022-08-11T14:04:29.662Z,21.66
2022-08-11T14:08:58.254Z,22.23
2022-08-11T14:13:59.584Z,21.68
2022-08-11T14:19:01.011Z,23.04
2022-08-11T14:24:02.662Z,20.71
2022-08-11T14:29:04.012Z,18.34
2022-08-11T14:34:05.547Z,20.28
2022-08-11T14:39:06.911Z,20.47
2022-08-11T14:44:27.169Z,19.58
2022-08-11T14:49:28.509Z,19.41
2022-08-11T14:54:48.673Z,20.00
2022-08-11T14:59:50.056Z,22.11
2022-08-11T15:04:51.447Z,20.75
2022-08-11T15:15:33.261Z,21.10
2022-08-11T15:20:53.716Z,21.96
2022-08-11T15:25:55.437Z,20.94
2022-08-11T15:31:15.731Z,20.59
2022-08-11T15:36:35.827Z,20.63
2022-08-11T15:41:58.451Z,21.71
2022-08-11T15:47:03.495Z,20.46
2022-08-11T15:52:04.807Z,21.49
2022-08-11T15:57:06.499Z,20.66
2022-08-11T16:02:28.580Z,21.16
2022-08-11T16:07:29.942Z,21.42
2022-08-11T16:12:32.521Z,22.30
2022-08-11T16:17:33.888Z,19.94
2022-08-11T16:22:39.618Z,21.00
2022-08-11T16:27:41.095Z,23.08
2022-08-11T16:32:43.032Z,22.81
2022-08-11T16:38:03.204Z,23.41
2022-08-11T16:43:23.183Z,23.03
2022-08-11T16:48:35.423Z,23.64
2022-08-11T16:53:48.984Z,22.35
2022-08-11T16:59:18.205Z,23.79
2022-08-11T17:04:38.655Z,22.92
2022-08-11T17:09:58.730Z,22.07
2022-08-11T17:15:03.370Z,23.32
2022-08-11T17:20:42.955Z,23.98
2022-08-11T17:25:29.160Z,24.48
2022-08-11T17:30:50.384Z,23.52
2022-08-11T17:35:51.655Z,25.32
2022-08-11T17:41:18.526Z,24.97
2022-08-11T17:46:44.123Z,26.42
2022-08-11T17:52:04.351Z,26.39
2022-08-11T17:57:24.303Z,27.20
2022-08-11T18:02:44.210Z,27.17
2022-08-11T18:08:03.934Z,27.57
2022-08-11T18:13:23.834Z,30.11
2022-08-11T18:18:43.995Z,29.97
2022-08-11T18:24:04.284Z,29.34
2022-08-11T18:29:24.342Z,31.23
2022-08-11T18:34:45.790Z,29.79
2022-08-11T18:40:08.871Z,30.09
2022-08-11T18:45:28.819Z,31.64
2022-08-11T18:50:52.586Z,31.18
2022-08-11T18:56:30.849Z,31.54
2022-08-11T19:01:50.738Z,32.17
2022-08-11T19:07:10.575Z,31.37
2022-08-11T19:12:30.715Z,32.37
2022-08-11T19:17:50.617Z,33.19
2022-08-11T19:23:10.439Z,32.69
2022-08-11T19:28:30.167Z,32.62
2022-08-11T19:34:00.193Z,33.49
2022-08-11T19:39:29.609Z,33.85
2022-08-11T19:44:49.491Z,34.60
2022-08-11T19:50:09.289Z,35.00
2022-08-11T19:55:30.526Z,35.16
2022-08-11T20:00:50.213Z,35.81
2022-08-11T20:06:10.000Z,35.54
2022-08-11T20:11:29.809Z,35.19
2022-08-11T20:16:49.785Z,34.88
2022-08-11T20:22:09.866Z,35.73
2022-08-11T20:27:30.246Z,35.97
2022-08-11T20:32:50.165Z,36.68
2022-08-11T20:38:13.598Z,37.68
2022-08-11T20:44:05.792Z,37.88
2022-08-11T20:49:13.948Z,38.28
2022-08-11T20:54:38.237Z,38.67
2022-08-11T21:00:04.211Z,39.65
2022-08-11T21:06:08.080Z,39.77
2022-08-11T21:11:04.229Z,40.27
2022-08-11T21:16:27.395Z,41.63
2022-08-11T21:21:47.545Z,40.83
2022-08-11T21:27:09.222Z,41.21
2022-08-11T21:32:36.313Z,41.70
2022-08-11T21:37:56.468Z,42.25
2022-08-11T21:43:16.278Z,43.27
2022-08-11T21:48:36.251Z,43.83
2022-08-11T21:53:56.299Z,45.58
2022-08-11T21:59:16.258Z,45.17
2022-08-11T22:04:36.212Z,44.52
2022-08-11T22:09:56.081Z,43.74
2022-08-11T22:15:15.948Z,43.87
2022-08-11T22:20:36.554Z,45.00
2022-08-11T22:25:59.708Z,42.64
2022-08-11T22:31:22.482Z,43.67
2022-08-11T22:36:42.729Z,45.05
2022-08-11T22:42:02.496Z,43.68
2022-08-11T22:47:22.676Z,44.28
2022-08-11T22:52:47.522Z,45.08
2022-08-11T22:58:07.416Z,44.88
2022-08-11T23:03:36.924Z,44.94
2022-08-11T23:08:58.435Z,45.55
2022-08-11T23:14:21.075Z,45.73
2022-08-11T23:20:15.162Z,46.20
2022-08-11T23:25:20.802Z,47.13
2022-08-11T23:30:40.728Z,46.60
2022-08-11T23:36:03.572Z,47.11
2022-08-11T23:41:25.102Z,47.96
2022-08-11T23:46:45.150Z,48.35
2022-08-11T23:52:04.946Z,47.90
2022-08-11T23:57:24.751Z,48.21
